Time;durP1;ratioP1;P1;durP2;ratioP2;P2;SDS_P1;SDS_P2;PMS_P1;PMS_P2;Temp;Humidity;BMP_temperature;BMP_pressure;BME280_temperature;BME280_humidity;BME280_pressure;Samples;Min_cycle;Max_cycle;Signal;HPM_P1;HPM_P2
2023/08/02 00:00:59;;;;;;;5.47;3.50;;;;;;;18.21;81.73;99038.00;5068925;28;20205;-63
2023/08/02 00:03:27;;;;;;;4.63;3.60;;;;;;;18.21;81.53;99041.44;5067612;28;20580;-63
2023/08/02 00:05:57;;;;;;;7.95;4.05;;;;;;;18.22;81.46;99040.50;5067032;28;20579;-64
2023/08/02 00:08:27;;;;;;;4.53;3.70;;;;;;;18.22;81.20;99031.84;5060796;28;20205;-63
2023/08/02 00:10:55;;;;;;;4.15;3.08;;;;;;;18.21;81.11;99032.78;5068561;28;20208;-63
2023/08/02 00:13:23;;;;;;;8.00;3.60;;;;;;;18.21;81.09;99030.16;5067740;28;20653;-62
2023/08/02 00:15:52;;;;;;;4.13;3.33;;;;;;;18.19;81.06;99029.41;5066906;28;20595;-63
2023/08/02 00:18:20;;;;;;;3.83;3.00;;;;;;;18.17;81.10;99032.13;5066594;28;20746;-63
2023/08/02 00:20:48;;;;;;;4.38;3.60;;;;;;;18.15;81.14;99028.75;5069537;28;20216;-62
2023/08/02 00:23:16;;;;;;;4.35;3.83;;;;;;;18.14;81.43;99024.47;5068457;28;20228;-62
2023/08/02 00:25:45;;;;;;;4.50;3.72;;;;;;;18.15;81.44;99035.72;5066319;28;20193;-63
2023/08/02 00:28:13;;;;;;;5.60;3.92;;;;;;;18.15;81.44;99033.97;5064649;28;20193;-63
2023/08/02 00:30:46;;;;;;;4.78;3.58;;;;;;;18.16;81.38;99033.06;5069259;28;20615;-63
2023/08/02 00:33:14;;;;;;;5.25;3.85;;;;;;;18.18;81.33;99025.97;5063525;28;20237;-64
2023/08/02 00:35:45;;;;;;;5.80;3.35;;;;;;;18.15;81.39;99033.13;5071277;28;20262;-63
2023/08/02 00:38:14;;;;;;;3.92;3.22;;;;;;;18.13;81.59;99041.03;5068468;28;20310;-62
2023/08/02 00:40:42;;;;;;;4.30;3.22;;;;;;;18.10;81.52;99047.28;5069947;28;20730;-63
2023/08/02 00:43:11;;;;;;;5.97;3.72;;;;;;;18.07;81.56;99051.81;5064767;28;20225;-62
2023/08/02 00:45:39;;;;;;;5.43;3.72;;;;;;;18.09;81.49;99049.97;5066065;28;20205;-64
2023/08/02 00:48:08;;;;;;;6.95;3.42;;;;;;;18.10;81.61;99051.66;5071726;28;20201;-63
2023/08/02 00:50:36;;;;;;;3.92;3.30;;;;;;;18.08;81.62;99054.34;5071659;28;20293;-64
2023/08/02 00:53:04;;;;;;;3.75;3.10;;;;;;;18.09;81.05;99048.22;5064185;28;20301;-62
2023/08/02 00:55:33;;;;;;;4.22;3.47;;;;;;;18.09;81.31;99040.38;5070519;28;20193;-62
2023/08/02 00:58:01;;;;;;;3.92;3.38;;;;;;;18.08;81.03;99043.94;5067664;28;20724;-62
2023/08/02 01:00:31;;;;;;;4.57;3.40;;;;;;;18.08;81.03;99050.91;5065946;28;20304;-61
2023/08/02 01:02:59;;;;;;;3.80;3.38;;;;;;;18.06;80.97;99048.38;5068964;28;20242;-62
2023/08/02 01:05:30;;;;;;;6.43;3.47;;;;;;;18.04;80.93;99042.44;5067828;28;20197;-62
2023/08/02 01:08:01;;;;;;;4.85;3.30;;;;;;;18.03;80.79;99043.34;5069337;28;20200;-62
2023/08/02 01:10:34;;;;;;;3.63;3.03;;;;;;;18.02;80.82;99057.31;5068687;28;20205;-61
2023/08/02 01:13:04;;;;;;;4.88;3.70;;;;;;;18.00;80.82;99050.50;5069487;28;20236;-62
2023/08/02 01:15:35;;;;;;;4.72;3.92;;;;;;;18.00;80.87;99056.53;5067371;28;21169;-62
2023/08/02 01:18:04;;;;;;;3.80;3.50;;;;;;;18.00;80.92;99058.31;5069711;28;20217;-61
2023/08/02 01:20:33;;;;;;;4.75;2.88;;;;;;;17.99;80.62;99069.69;5069619;28;20217;-62
2023/08/02 01:23:01;;;;;;;4.63;3.13;;;;;;;18.02;80.71;99072.94;5066105;28;20200;-62
2023/08/02 01:25:32;;;;;;;4.57;3.90;;;;;;;18.03;80.22;99077.22;5069742;28;20603;-62
2023/08/02 01:28:03;;;;;;;4.13;3.28;;;;;;;18.00;79.81;99066.97;5069922;28;20235;-63
2023/08/02 01:30:36;;;;;;;5.68;3.42;;;;;;;17.96;79.65;99064.63;5071761;28;20292;-63
2023/08/02 01:33:04;;;;;;;3.92;3.53;;;;;;;17.91;79.75;99061.47;5068782;28;20252;-65
2023/08/02 01:35:33;;;;;;;3.75;3.42;;;;;;;17.87;79.91;99060.81;5068255;28;20236;-66
2023/08/02 01:38:02;;;;;;;5.53;3.30;;;;;;;17.85;79.71;99057.44;5066338;28;20272;-66
2023/08/02 01:40:30;;;;;;;3.50;3.20;;;;;;;17.84;80.21;99063.59;5068946;28;20206;-67
2023/08/02 01:42:58;;;;;;;3.33;2.90;;;;;;;17.83;80.05;99057.53;5069539;28;20228;-65
2023/08/02 01:45:25;;;;;;;3.95;3.40;;;;;;;17.84;79.93;99067.03;5067665;28;20291;-64
2023/08/02 01:47:54;;;;;;;4.00;2.95;;;;;;;17.81;79.86;99067.19;5062729;28;20205;-62
2023/08/02 01:50:23;;;;;;;3.97;2.65;;;;;;;17.80;79.99;99073.34;5060503;28;20220;-63
2023/08/02 01:52:52;;;;;;;5.75;3.33;;;;;;;17.81;79.89;99072.41;5059574;28;20324;-62
2023/08/02 01:55:20;;;;;;;6.63;3.42;;;;;;;17.80;79.98;99065.53;5061605;28;20209;-63
2023/08/02 01:57:48;;;;;;;5.63;3.50;;;;;;;17.78;80.01;99066.53;5061575;28;20653;-62
2023/08/02 02:00:16;;;;;;;3.53;3.22;;;;;;;17.76;79.86;99068.41;5059698;28;20209;-63
2023/08/02 02:02:44;;;;;;;3.28;3.03;;;;;;;17.73;80.10;99071.97;5059274;28;20661;-61
2023/08/02 02:05:12;;;;;;;4.28;3.30;;;;;;;17.71;80.46;99081.66;5066472;28;20228;-62
2023/08/02 02:07:40;;;;;;;3.53;3.20;;;;;;;17.72;80.35;99072.91;5065210;28;20737;-61
2023/08/02 02:10:10;;;;;;;5.78;3.70;;;;;;;17.69;80.41;99077.44;5067265;28;20764;-62
2023/08/02 02:12:38;;;;;;;3.85;3.08;;;;;;;17.67;80.47;99084.50;5069393;28;20252;-63
2023/08/02 02:15:07;;;;;;;4.55;2.95;;;;;;;17.63;80.48;99083.81;5069472;28;20205;-62
2023/08/02 02:17:35;;;;;;;3.70;2.95;;;;;;;17.56;80.76;99082.50;5070148;28;20634;-62
2023/08/02 02:20:04;;;;;;;3.78;3.33;;;;;;;17.52;81.04;99081.81;5069966;28;20205;-62
2023/08/02 02:22:32;;;;;;;6.90;3.80;;;;;;;17.47;81.29;99081.25;5068747;28;20566;-63
2023/08/02 02:25:01;;;;;;;4.03;3.05;;;;;;;17.44;81.49;99073.59;5068111;28;20229;-62
2023/08/02 02:27:30;;;;;;;4.97;3.30;;;;;;;17.39;81.73;99075.63;5070174;28;20213;-63
2023/08/02 02:29:58;;;;;;;3.25;2.95;;;;;;;17.39;81.75;99080.84;5069942;28;20209;-62
2023/08/02 02:32:26;;;;;;;3.38;3.08;;;;;;;17.37;81.75;99083.50;5068633;28;20214;-63
2023/08/02 02:34:54;;;;;;;3.78;3.45;;;;;;;17.33;81.89;99082.00;5066719;28;20233;-62
2023/08/02 02:37:22;;;;;;;4.18;3.35;;;;;;;17.30;82.03;99082.16;5061813;28;20204;-62
2023/08/02 02:39:50;;;;;;;6.13;3.40;;;;;;;17.27;82.15;99071.94;5066116;28;20253;-61
2023/08/02 02:42:18;;;;;;;3.95;3.00;;;;;;;17.22;82.20;99066.13;5063037;28;20198;-62
2023/08/02 02:44:47;;;;;;;4.03;3.65;;;;;;;17.21;82.39;99072.25;5067596;28;20231;-65
2023/08/02 02:47:15;;;;;;;5.40;3.13;;;;;;;17.19;82.50;99074.09;5067809;28;21247;-62
2023/08/02 02:49:43;;;;;;;4.55;3.45;;;;;;;17.18;82.63;99071.59;5065494;28;20289;-62
2023/08/02 02:52:11;;;;;;;4.13;3.33;;;;;;;17.15;82.64;99077.78;5069461;28;20661;-62
2023/08/02 02:54:39;;;;;;;3.85;3.13;;;;;;;17.13;82.83;99087.47;5069738;28;20211;-63
2023/08/02 02:57:07;;;;;;;4.03;3.35;;;;;;;17.12;82.70;99083.16;5063780;28;20220;-64
2023/08/02 02:59:35;;;;;;;4.40;3.58;;;;;;;17.11;82.86;99087.53;5066647;28;20224;-61
2023/08/02 03:02:05;;;;;;;5.70;3.58;;;;;;;17.09;82.87;99085.94;5070082;28;20560;-62
2023/08/02 03:04:33;;;;;;;4.72;3.50;;;;;;;17.03;83.21;99091.47;5067463;28;20291;-63
2023/08/02 03:07:02;;;;;;;4.60;3.63;;;;;;;17.02;83.37;99100.22;5066755;28;20727;-62
2023/08/02 03:09:30;;;;;;;4.30;3.22;;;;;;;16.98;83.34;99104.72;5069317;28;20334;-62
2023/08/02 03:11:58;;;;;;;3.95;3.28;;;;;;;16.89;83.63;99097.41;5059731;28;20669;-65
2023/08/02 03:14:28;;;;;;;3.97;3.15;;;;;;;16.88;83.85;99103.53;5064026;28;20211;-63
2023/08/02 03:16:55;;;;;;;4.45;3.55;;;;;;;16.86;84.12;99094.94;5065352;28;20205;-62
2023/08/02 03:19:25;;;;;;;5.63;3.75;;;;;;;16.82;84.27;99091.66;5065576;28;20247;-60
2023/08/02 03:21:53;;;;;;;4.20;3.60;;;;;;;16.78;84.46;99090.16;5065987;28;20201;-62
2023/08/02 03:24:21;;;;;;;5.82;3.78;;;;;;;16.79;84.55;99096.19;5068096;28;20241;-61
2023/08/02 03:26:49;;;;;;;4.70;3.63;;;;;;;16.76;84.64;99098.97;5068077;28;20681;-61
2023/08/02 03:29:17;;;;;;;4.32;3.55;;;;;;;16.76;84.47;99096.38;5065500;28;20202;-62
2023/08/02 03:31:45;;;;;;;3.65;3.25;;;;;;;16.79;84.40;99106.59;5067965;28;20205;-62
2023/08/02 03:34:14;;;;;;;6.63;4.07;;;;;;;16.81;84.18;99110.81;5068157;28;20209;-63
2023/08/02 03:36:43;;;;;;;4.95;3.58;;;;;;;16.84;84.19;99110.66;5061601;28;20646;-64
2023/08/02 03:39:12;;;;;;;4.30;3.83;;;;;;;16.88;84.05;99112.16;5068375;28;20236;-64
2023/08/02 03:41:40;;;;;;;4.60;3.33;;;;;;;16.89;83.91;99118.22;5067465;28;20213;-62
2023/08/02 03:44:07;;;;;;;5.95;3.13;;;;;;;16.92;83.38;99123.25;5065877;28;20201;-62
2023/08/02 03:46:35;;;;;;;4.80;3.50;;;;;;;16.95;83.44;99125.72;5068546;28;20520;-62
2023/08/02 03:49:03;;;;;;;4.72;3.55;;;;;;;16.95;83.27;99117.06;5062092;28;20297;-63
2023/08/02 03:51:31;;;;;;;4.78;3.65;;;;;;;16.97;83.38;99125.63;5064359;28;20282;-63
2023/08/02 03:54:03;;;;;;;4.97;3.78;;;;;;;16.96;83.31;99129.97;5065425;28;20628;-62
2023/08/02 03:56:31;;;;;;;4.25;3.20;;;;;;;16.93;83.16;99124.94;5066385;28;20205;-62
2023/08/02 03:58:59;;;;;;;3.40;3.10;;;;;;;16.90;83.30;99125.97;5067575;28;20220;-63
2023/08/02 04:01:27;;;;;;;5.65;3.60;;;;;;;16.91;83.45;99124.19;5066774;28;20206;-63
2023/08/02 04:03:55;;;;;;;6.00;3.80;;;;;;;16.89;83.67;99113.00;5065768;28;20247;-65
2023/08/02 04:06:23;;;;;;;7.47;3.75;;;;;;;16.93;83.67;99124.09;5063737;28;20208;-61
2023/08/02 04:08:52;;;;;;;5.85;4.20;;;;;;;16.97;83.09;99120.41;5063325;28;20259;-62
2023/08/02 04:11:21;;;;;;;6.10;3.83;;;;;;;17.06;83.12;99123.38;5063477;28;20717;-62
2023/08/02 04:13:50;;;;;;;4.03;2.92;;;;;;;17.09;82.54;99136.25;5068697;28;20288;-62
2023/08/02 04:16:18;;;;;;;8.43;3.47;;;;;;;17.13;81.96;99129.94;5055358;28;20229;-64
2023/08/02 04:18:46;;;;;;;4.18;3.55;;;;;;;17.15;81.92;99129.84;5069662;28;20200;-61
2023/08/02 04:21:18;;;;;;;4.47;3.40;;;;;;;17.23;81.84;99127.69;5066234;28;20193;-61
2023/08/02 04:23:47;;;;;;;5.35;3.15;;;;;;;17.34;81.07;99124.50;5067171;28;20327;-62
2023/08/02 04:26:16;;;;;;;4.22;3.38;;;;;;;17.47;80.97;99129.91;5066927;28;20733;-64
2023/08/02 04:28:45;;;;;;;5.45;3.50;;;;;;;17.50;79.73;99121.91;5067530;28;20207;-62
2023/08/02 04:31:14;;;;;;;3.78;3.25;;;;;;;17.51;79.71;99132.25;5068225;28;20565;-62
2023/08/02 04:33:42;;;;;;;3.20;2.90;;;;;;;17.57;79.20;99128.47;5068485;28;20205;-63
2023/08/02 04:36:10;;;;;;;5.07;3.45;;;;;;;17.57;78.54;99141.50;5065520;28;20209;-63
2023/08/02 04:38:38;;;;;;;4.60;3.22;;;;;;;17.58;78.79;99132.75;5068900;28;20303;-63
2023/08/02 04:41:06;;;;;;;4.95;4.03;;;;;;;17.63;78.70;99138.53;5067969;28;20237;-61
2023/08/02 04:43:34;;;;;;;4.70;3.17;;;;;;;17.76;77.79;99142.19;5067311;28;20208;-62
2023/08/02 04:46:03;;;;;;;3.78;3.20;;;;;;;17.90;77.46;99138.81;5069634;28;20197;-63
2023/08/02 04:48:31;;;;;;;4.38;3.45;;;;;;;18.03;76.23;99150.22;5066464;28;20688;-62
2023/08/02 04:50:59;;;;;;;4.70;3.50;;;;;;;18.08;75.80;99156.03;5065257;28;20600;-62
2023/08/02 04:53:27;;;;;;;3.88;3.47;;;;;;;18.20;75.78;99146.66;5058728;28;20210;-63
2023/08/02 04:55:55;;;;;;;4.22;2.97;;;;;;;18.25;74.17;99149.84;5057806;28;20312;-61
2023/08/02 04:58:24;;;;;;;4.20;3.40;;;;;;;18.33;75.05;99149.38;5066554;28;20654;-62
2023/08/02 05:00:52;;;;;;;4.30;3.28;;;;;;;18.50;74.66;99154.47;5054731;28;20214;-62
2023/08/02 05:03:22;;;;;;;3.97;3.10;;;;;;;18.73;73.23;99160.97;5064785;28;20212;-62
2023/08/02 05:05:51;;;;;;;3.88;3.08;;;;;;;18.89;72.67;99162.66;5066868;28;20575;-62
2023/08/02 05:08:19;;;;;;;3.13;2.83;;;;;;;19.02;71.98;99155.78;5060674;28;20202;-63
2023/08/02 05:10:47;;;;;;;6.00;3.40;;;;;;;19.10;70.85;99158.78;5063379;28;20190;-62
2023/08/02 05:13:15;;;;;;;7.20;3.03;;;;;;;19.19;70.75;99155.63;5063668;28;20212;-61
2023/08/02 05:15:43;;;;;;;3.97;3.00;;;;;;;19.34;70.16;99158.22;5055895;28;20297;-63
2023/08/02 05:18:11;;;;;;;3.72;3.17;;;;;;;19.54;69.60;99158.63;5065722;28;20201;-62
2023/08/02 05:20:40;;;;;;;5.50;3.15;;;;;;;19.71;68.39;99157.63;5068114;28;20241;-62
2023/08/02 05:23:08;;;;;;;4.15;3.17;;;;;;;19.89;67.83;99162.63;5062404;28;20638;-61
2023/08/02 05:25:36;;;;;;;3.58;3.15;;;;;;;19.97;67.31;99162.97;5063229;28;20775;-64
2023/08/02 05:28:05;;;;;;;5.80;2.78;;;;;;;20.28;67.68;99159.19;5070497;28;20197;-63
2023/08/02 05:30:33;;;;;;;8.13;3.17;;;;;;;20.71;65.14;99161.59;5070780;28;20232;-62
2023/08/02 05:33:01;;;;;;;4.57;2.97;;;;;;;21.15;63.19;99158.56;5068096;28;20205;-64
2023/08/02 05:35:30;;;;;;;3.70;2.45;;;;;;;21.50;61.42;99157.88;5069841;28;20618;-62
2023/08/02 05:37:59;;;;;;;4.07;3.00;;;;;;;21.80;59.32;99154.00;5066289;28;20653;-64
2023/08/02 05:40:27;;;;;;;2.80;2.50;;;;;;;22.28;59.53;99162.78;5071818;28;20217;-63
2023/08/02 05:42:55;;;;;;;5.50;2.95;;;;;;;23.26;56.76;99151.84;5073038;28;20269;-63
2023/08/02 05:45:23;;;;;;;4.80;2.53;;;;;;;24.32;53.36;99149.47;5061484;28;20292;-67
2023/08/02 05:47:52;;;;;;;3.25;2.95;;;;;;;25.00;50.40;99149.91;5071068;28;20638;-65
2023/08/02 05:50:20;;;;;;;4.50;2.75;;;;;;;25.63;48.61;99147.94;5066776;28;20225;-64
2023/08/02 05:52:48;;;;;;;4.15;2.13;;;;;;;26.19;46.76;99154.44;5071311;28;20205;-63
2023/08/02 05:55:18;;;;;;;3.63;3.17;;;;;;;26.75;45.12;99156.34;5067050;28;20239;-65
2023/08/02 05:57:48;;;;;;;5.97;2.58;;;;;;;27.51;43.69;99158.03;5064923;28;20671;-63
2023/08/02 06:00:16;;;;;;;4.07;2.65;;;;;;;28.63;39.82;99158.47;5070523;28;20264;-63
2023/08/02 06:02:44;;;;;;;3.60;2.58;;;;;;;29.14;39.16;99156.81;5069240;28;20216;-64
2023/08/02 06:05:12;;;;;;;7.40;2.55;;;;;;;29.82;37.25;99153.25;5072523;28;20213;-63
2023/08/02 06:07:40;;;;;;;4.97;2.60;;;;;;;31.04;36.38;99147.09;5070093;28;20209;-65
2023/08/02 06:10:09;;;;;;;3.25;2.92;;;;;;;32.63;32.65;99152.88;5072896;28;20201;-65
2023/08/02 06:12:39;;;;;;;5.90;2.70;;;;;;;33.33;30.63;99156.13;5070941;28;20297;-64
2023/08/02 06:15:08;;;;;;;2.65;2.45;;;;;;;33.63;30.80;99156.94;5069522;28;20201;-67
2023/08/02 06:17:36;;;;;;;2.60;2.40;;;;;;;34.23;29.03;99154.88;5070683;28;20582;-65
2023/08/02 06:20:06;;;;;;;4.90;2.10;;;;;;;34.25;29.05;99159.03;5072521;28;20221;-65
2023/08/02 06:22:34;;;;;;;5.45;2.38;;;;;;;34.80;28.38;99168.13;5071000;28;20308;-65
2023/08/02 06:25:03;;;;;;;3.22;2.20;;;;;;;35.25;28.03;99162.44;5070948;28;20252;-67
2023/08/02 06:27:31;;;;;;;4.07;2.33;;;;;;;36.01;26.71;99165.84;5069788;28;20209;-67
2023/08/02 06:30:00;;;;;;;4.57;2.25;;;;;;;36.50;24.88;99167.34;5061297;28;20202;-66
2023/08/02 06:32:28;;;;;;;3.15;2.25;;;;;;;36.52;26.04;99165.28;5069792;28;20201;-65
2023/08/02 06:34:56;;;;;;;5.13;2.10;;;;;;;37.37;24.90;99164.50;5071411;28;20205;-67
2023/08/02 06:37:25;;;;;;;3.47;2.17;;;;;;;37.46;24.14;99161.38;5072488;28;20545;-65
2023/08/02 06:39:53;;;;;;;3.22;1.98;;;;;;;37.53;24.16;99163.22;5067322;28;20208;-65
2023/08/02 06:42:21;;;;;;;4.43;2.25;;;;;;;38.12;23.65;99162.91;5067533;28;20258;-65
2023/08/02 06:44:48;;;;;;;3.47;2.58;;;;;;;38.65;23.16;99173.25;5067175;28;20244;-65
2023/08/02 06:47:18;;;;;;;2.50;2.30;;;;;;;39.02;22.24;99167.94;5059889;28;20209;-65
2023/08/02 06:49:46;;;;;;;2.25;1.92;;;;;;;38.77;21.67;99176.03;5069655;28;20212;-65
2023/08/02 06:52:14;;;;;;;2.63;2.22;;;;;;;38.93;21.83;99169.28;5068276;28;20288;-65
2023/08/02 06:54:42;;;;;;;4.13;1.90;;;;;;;39.02;21.71;99167.09;5066060;28;20749;-65
2023/08/02 06:57:10;;;;;;;5.38;2.40;;;;;;;39.55;21.38;99171.91;5069632;28;20684;-64
2023/08/02 06:59:38;;;;;;;4.93;2.33;;;;;;;39.76;20.79;99166.03;5068524;28;20201;-63
2023/08/02 07:02:07;;;;;;;4.25;2.00;;;;;;;39.51;21.22;99176.09;5066955;28;20239;-64
2023/08/02 07:04:36;;;;;;;3.63;2.08;;;;;;;39.07;21.46;99186.97;5064248;28;20235;-65
2023/08/02 07:07:06;;;;;;;3.50;2.10;;;;;;;38.57;21.73;99186.16;5064960;28;20644;-65
2023/08/02 07:09:34;;;;;;;3.20;1.77;;;;;;;38.31;21.44;99196.06;5056760;28;20813;-64
2023/08/02 07:12:02;;;;;;;4.45;2.20;;;;;;;36.84;22.71;99191.47;5061699;28;20627;-63
2023/08/02 07:14:30;;;;;;;2.50;2.00;;;;;;;35.36;25.27;99196.72;5055620;28;20613;-64
2023/08/02 07:16:58;;;;;;;3.17;2.13;;;;;;;35.97;25.01;99188.69;5060825;28;20206;-63
2023/08/02 07:19:26;;;;;;;3.35;1.80;;;;;;;37.22;23.29;99194.31;5069497;28;20229;-64
2023/08/02 07:21:55;;;;;;;3.20;1.98;;;;;;;37.55;22.20;99194.22;5069014;28;20298;-68
2023/08/02 07:24:24;;;;;;;3.70;1.90;;;;;;;38.56;22.10;99196.13;5061667;28;20244;-65
2023/08/02 07:26:52;;;;;;;2.22;1.83;;;;;;;38.20;22.08;99199.47;5063284;28;20547;-66
2023/08/02 07:29:20;;;;;;;1.83;1.65;;;;;;;38.65;21.27;99204.72;5070814;28;20646;-70
2023/08/02 07:31:48;;;;;;;4.97;1.92;;;;;;;36.62;22.57;99193.56;5066232;28;20201;-59
2023/08/02 07:34:16;;;;;;;2.65;2.13;;;;;;;34.07;28.88;99206.78;5067782;28;20258;-67
2023/08/02 07:36:44;;;;;;;2.55;1.98;;;;;;;31.76;30.50;99208.25;5069718;28;20215;-67
2023/08/02 07:39:13;;;;;;;3.50;1.77;;;;;;;32.27;30.11;99200.63;5070534;28;20216;-64
2023/08/02 07:41:41;;;;;;;4.70;2.15;;;;;;;34.52;28.02;99202.09;5065566;28;20247;-62
2023/08/02 07:44:10;;;;;;;3.95;2.10;;;;;;;36.33;24.60;99200.94;5065899;28;20201;-66
2023/08/02 07:46:38;;;;;;;3.28;1.85;;;;;;;36.13;24.23;99200.13;5065343;28;20197;-67
2023/08/02 07:49:06;;;;;;;3.70;2.08;;;;;;;36.48;23.65;99198.91;5069614;28;20645;-64
2023/08/02 07:51:34;;;;;;;3.35;2.10;;;;;;;35.40;24.06;99206.00;5057560;28;20289;-63
2023/08/02 07:54:02;;;;;;;5.28;2.45;;;;;;;33.25;27.30;99206.94;5071075;28;20205;-65
2023/08/02 07:56:31;;;;;;;3.80;2.03;;;;;;;32.89;28.59;99212.97;5070401;28;20232;-65
2023/08/02 07:58:59;;;;;;;2.97;2.28;;;;;;;34.09;27.42;99210.91;5062736;28;20209;-60
2023/08/02 08:01:30;;;;;;;2.42;2.00;;;;;;;35.60;25.33;99210.66;5064703;28;20221;-62
2023/08/02 08:03:58;;;;;;;3.78;2.30;;;;;;;37.10;23.05;99202.19;5066133;28;20301;-64
2023/08/02 08:06:27;;;;;;;3.40;2.90;;;;;;;35.97;23.18;99212.00;5062093;28;20201;-61
2023/08/02 08:08:55;;;;;;;6.07;2.45;;;;;;;33.75;26.72;99216.88;5069975;28;20300;-62
2023/08/02 08:11:23;;;;;;;2.88;2.47;;;;;;;32.31;29.70;99214.44;5070049;28;20197;-65
2023/08/02 08:13:52;;;;;;;2.72;2.20;;;;;;;32.73;29.57;99208.59;5066310;28;20296;-65
2023/08/02 08:16:20;;;;;;;2.88;2.38;;;;;;;32.59;29.15;99210.25;5067994;28;20197;-66
2023/08/02 08:18:48;;;;;;;2.95;2.20;;;;;;;31.69;30.68;99226.75;5069775;28;20222;-67
2023/08/02 08:21:18;;;;;;;4.05;2.08;;;;;;;30.85;30.74;99232.63;5066245;28;20209;-65
2023/08/02 08:23:46;;;;;;;4.40;2.50;;;;;;;30.70;32.17;99227.94;5067293;28;20603;-65
2023/08/02 08:26:14;;;;;;;3.00;2.45;;;;;;;30.95;31.86;99225.31;5068870;28;20599;-63
2023/08/02 08:28:42;;;;;;;3.17;2.80;;;;;;;30.79;32.20;99227.00;5069689;28;20299;-65
2023/08/02 08:31:12;;;;;;;4.50;3.35;;;;;;;30.52;33.30;99219.31;5065759;28;20198;-62
2023/08/02 08:33:46;;;;;;;7.65;2.28;;;;;;;29.89;33.07;99227.81;5070409;28;20205;-69
2023/08/02 08:36:14;;;;;;;4.78;2.70;;;;;;;28.72;34.74;99228.28;5062174;28;20212;-66
2023/08/02 08:38:42;;;;;;;4.07;2.60;;;;;;;27.93;37.17;99221.91;5066539;28;20205;-66
2023/08/02 08:41:15;;;;;;;4.15;2.53;;;;;;;27.34;38.46;99223.13;5070433;28;20384;-66
2023/08/02 08:43:43;;;;;;;2.58;2.22;;;;;;;27.05;39.28;99225.84;5069396;28;20220;-66
2023/08/02 08:46:14;;;;;;;4.63;2.28;;;;;;;26.76;39.70;99228.53;5068691;28;20198;-66
2023/08/02 08:48:43;;;;;;;2.85;1.90;;;;;;;26.63;39.18;99231.47;5070254;28;20205;-64
2023/08/02 08:51:12;;;;;;;2.22;2.03;;;;;;;26.39;39.11;99245.88;5067344;28;20201;-67
2023/08/02 08:53:44;;;;;;;3.33;1.98;;;;;;;25.98;40.54;99249.59;5067488;28;20255;-68
2023/08/02 08:56:12;;;;;;;4.38;2.10;;;;;;;25.38;41.50;99248.66;5069706;28;20733;-68
2023/08/02 08:58:40;;;;;;;6.43;2.00;;;;;;;25.05;41.84;99248.72;5065480;28;20198;-67
2023/08/02 09:01:08;;;;;;;4.17;1.90;;;;;;;25.06;41.58;99245.09;5067503;28;20291;-64
2023/08/02 09:03:38;;;;;;;3.22;1.85;;;;;;;24.94;41.88;99245.31;5071439;28;20209;-64
2023/08/02 09:06:06;;;;;;;3.78;2.35;;;;;;;24.76;42.51;99242.41;5070421;28;20278;-68
2023/08/02 09:08:42;;;;;;;3.85;1.67;;;;;;;24.55;43.79;99245.84;5064717;28;20278;-66
2023/08/02 09:11:10;;;;;;;2.83;2.08;;;;;;;24.56;44.33;99247.53;5066789;28;20292;-65
2023/08/02 09:13:38;;;;;;;10.32;1.90;;;;;;;24.61;44.15;99260.34;5070621;28;20250;-62
2023/08/02 09:16:08;;;;;;;3.17;1.83;;;;;;;24.49;43.51;99246.38;5069587;28;20216;-66
2023/08/02 09:18:40;;;;;;;2.83;1.52;;;;;;;24.44;44.04;99252.97;5071581;28;20236;-69
2023/08/02 09:21:11;;;;;;;2.35;1.45;;;;;;;24.67;43.62;99259.84;5068491;28;20207;-66
2023/08/02 09:23:39;;;;;;;1.65;1.55;;;;;;;24.97;42.07;99245.06;5070163;28;20320;-67
2023/08/02 09:26:14;;;;;;;2.60;1.33;;;;;;;25.13;41.97;99242.00;5071190;28;20220;-67
2023/08/02 09:28:59;;;;;;;1.85;1.40;;;;;;;25.22;41.19;99243.84;5069270;28;20667;-69
2023/08/02 09:31:28;;;;;;;2.88;1.40;;;;;;;24.89;41.02;99239.56;5067851;28;20684;-67
2023/08/02 09:33:58;;;;;;;2.53;1.50;;;;;;;25.08;41.74;99236.25;5067494;28;20198;-67
2023/08/02 09:36:28;;;;;;;3.85;1.33;;;;;;;26.23;38.40;99235.03;5072297;28;20683;-67
2023/08/02 09:39:01;;;;;;;1.67;0.98;;;;;;;26.76;36.20;99228.53;5071834;28;20684;-68
2023/08/02 09:41:30;;;;;;;1.75;1.30;;;;;;;26.97;35.57;99223.91;5071059;28;20208;-66
2023/08/02 09:44:20;;;;;;;1.13;0.98;;;;;;;28.39;34.23;99218.25;5069505;28;20766;-66
2023/08/02 09:46:48;;;;;;;1.08;0.93;;;;;;;29.81;29.97;99221.47;5071794;28;20300;-67
2023/08/02 09:49:19;;;;;;;1.88;0.82;;;;;;;30.55;28.84;99227.78;5065583;28;20197;-66
2023/08/02 09:51:47;;;;;;;3.30;2.00;;;;;;;31.72;28.50;99217.59;5062715;28;20205;-64
2023/08/02 09:54:16;;;;;;;1.10;1.00;;;;;;;32.64;26.64;99218.53;5064526;28;20210;-63
2023/08/02 09:56:44;;;;;;;0.82;0.82;;;;;;;33.13;24.91;99206.56;5071878;28;20247;-62
2023/08/02 09:59:13;;;;;;;1.83;0.95;;;;;;;33.41;24.61;99201.44;5064503;28;20214;-64
2023/08/02 10:01:43;;;;;;;1.27;0.90;;;;;;;33.75;23.11;99210.72;5065256;28;20225;-63
2023/08/02 10:04:13;;;;;;;3.55;1.00;;;;;;;34.10;23.25;99214.44;5069721;28;20204;-63
2023/08/02 10:06:45;;;;;;;1.67;0.90;;;;;;;34.61;22.60;99201.78;5071354;28;20950;-62
2023/08/02 10:09:19;;;;;;;1.42;1.10;;;;;;;33.39;24.33;99206.13;5071877;28;20207;-62
2023/08/02 10:11:54;;;;;;;2.85;1.00;;;;;;;31.50;26.49;99209.38;5069089;28;20283;-62
2023/08/02 10:14:24;;;;;;;2.83;0.93;;;;;;;29.83;29.10;99208.06;5068707;28;20305;-61
2023/08/02 10:16:53;;;;;;;4.78;1.17;;;;;;;28.91;31.79;99200.75;5067405;28;20233;-62
2023/08/02 10:19:21;;;;;;;3.60;1.10;;;;;;;28.49;32.46;99204.06;5071892;28;20208;-63
2023/08/02 10:21:52;;;;;;;1.05;0.93;;;;;;;27.60;33.83;99208.25;5069179;28;20258;-63
2023/08/02 10:24:21;;;;;;;3.97;0.98;;;;;;;27.15;34.50;99202.88;5067578;28;20222;-64
2023/08/02 10:26:50;;;;;;;1.45;1.10;;;;;;;26.81;35.04;99206.00;5069549;28;20209;-62
2023/08/02 10:29:20;;;;;;;3.20;1.00;;;;;;;26.36;35.47;99214.47;5069315;28;20280;-65
2023/08/02 10:31:48;;;;;;;1.55;1.10;;;;;;;26.27;36.15;99205.56;5063152;28;20270;-63
2023/08/02 10:34:44;;;;;;;1.27;0.95;;;;;;;28.17;33.15;99202.78;5066208;28;20250;-62
2023/08/02 10:37:14;;;;;;;1.45;0.90;;;;;;;28.67;31.42;99196.94;5060035;28;20217;-64
2023/08/02 10:39:57;;;;;;;2.03;1.00;;;;;;;27.87;32.80;99196.00;5057304;28;20673;-63
2023/08/02 10:42:29;;;;;;;1.90;0.88;;;;;;;27.27;33.81;99196.41;5066725;28;20217;-64
2023/08/02 10:45:17;;;;;;;1.55;0.95;;;;;;;27.93;34.13;99182.19;5068311;28;20209;-65
2023/08/02 10:47:45;;;;;;;2.55;0.95;;;;;;;28.71;31.88;99174.44;5061832;28;20283;-63
2023/08/02 10:50:47;;;;;;;2.83;1.23;;;;;;;28.48;31.81;99171.44;5071142;28;20665;-63
2023/08/02 10:53:18;;;;;;;1.33;1.17;;;;;;;28.28;32.89;99167.25;5066877;28;20270;-63
2023/08/02 10:56:16;;;;;;;1.33;1.10;;;;;;;29.39;30.56;99162.25;5069456;28;20209;-64
2023/08/02 10:58:50;;;;;;;1.70;0.95;;;;;;;31.09;27.84;99157.25;5062938;28;20635;-65
2023/08/02 11:01:19;;;;;;;1.60;0.88;;;;;;;32.86;25.75;99149.28;5067454;28;20200;-63
2023/08/02 11:03:48;;;;;;;1.13;1.02;;;;;;;34.20;23.50;99139.22;5067923;28;20685;-64
2023/08/02 11:06:27;;;;;;;2.03;0.82;;;;;;;34.88;21.72;99136.88;5068747;28;21883;-64
2023/08/02 11:08:56;;;;;;;2.30;1.10;;;;;;;35.46;21.10;99132.88;5059660;28;20297;-64
2023/08/02 11:11:29;;;;;;;1.05;0.90;;;;;;;35.92;20.60;99134.03;5071221;28;20570;-65
2023/08/02 11:13:57;;;;;;;1.88;0.90;;;;;;;36.33;20.58;99136.56;5063250;28;20232;-65
2023/08/02 11:16:25;;;;;;;1.35;1.00;;;;;;;36.25;20.30;99126.03;5071626;28;20570;-63
2023/08/02 11:18:54;;;;;;;1.42;1.00;;;;;;;36.36;19.97;99122.75;5068642;28;20201;-63
2023/08/02 11:21:22;;;;;;;1.38;1.13;;;;;;;35.82;19.91;99129.06;5068996;28;20687;-62
2023/08/02 11:23:50;;;;;;;1.80;1.10;;;;;;;35.21;20.95;99118.34;5068048;28;20676;-63
2023/08/02 11:26:22;;;;;;;1.65;1.05;;;;;;;34.77;21.33;99130.22;5070736;28;20657;-61
2023/08/02 11:28:52;;;;;;;1.77;1.13;;;;;;;34.57;21.88;99114.03;5070759;28;20201;-62
2023/08/02 11:31:24;;;;;;;1.45;1.02;;;;;;;34.22;21.47;99137.19;5068940;28;20202;-61
2023/08/02 11:33:52;;;;;;;1.23;1.08;;;;;;;32.33;23.64;99137.75;5068691;28;20201;-61
2023/08/02 11:36:21;;;;;;;1.63;1.17;;;;;;;31.08;26.07;99135.16;5071476;28;20206;-62
2023/08/02 11:38:49;;;;;;;1.92;0.80;;;;;;;30.03;27.39;99142.19;5070191;28;20205;-62
2023/08/02 11:41:19;;;;;;;4.57;1.00;;;;;;;28.79;28.57;99132.06;5066623;28;20636;-64
2023/08/02 11:43:49;;;;;;;1.95;1.05;;;;;;;28.07;30.32;99147.22;5068993;28;20244;-62